Time;durP1;ratioP1;P1;durP2;ratioP2;P2;SDS_P1;SDS_P2;PMS_P1;PMS_P2;Temp;Humidity;BMP_temperature;BMP_pressure;BME280_temperature;BME280_humidity;BME280_pressure;Samples;Min_cycle;Max_cycle;Signal;HPM_P1;HPM_P2
2023/10/07 00:00:51;;;;;;;;;;;22.20;58.20;;;;;;1544540;76;1143;-66
2023/10/07 00:02:53;;;;;;;;;;;22.20;58.30;;;;;;1537217;75;1674;-66
2023/10/07 00:04:54;;;;;;;;;;;22.20;58.20;;;;;;1533686;76;693;-67
2023/10/07 00:06:59;;;;;;;;;;;22.10;58.10;;;;;;1529256;76;699;-65
2023/10/07 00:09:01;;;;;;;;;;;22.20;58.30;;;;;;1535140;76;1689;-65
2023/10/07 00:11:11;;;;;;;;;;;22.20;58.30;;;;;;1532982;76;1077;-64
2023/10/07 00:13:09;;;;;;;;;;;22.20;58.40;;;;;;1532919;76;1081;-65
2023/10/07 00:15:11;;;;;;;;;;;22.10;58.40;;;;;;1532326;76;1920;-64
2023/10/07 00:17:19;;;;;;;;;;;22.20;58.20;;;;;;1532802;76;676;-64
2023/10/07 00:19:21;;;;;;;;;;;22.20;58.30;;;;;;1534970;75;1089;-65
2023/10/07 00:21:53;;;;;;;;;;;22.10;58.40;;;;;;1529669;76;649;-66
2023/10/07 00:23:27;;;;;;;;;;;22.20;58.30;;;;;;1531154;76;1654;-64
2023/10/07 00:25:34;;;;;;;;;;;22.20;58.20;;;;;;1532852;76;664;-64
2023/10/07 00:27:38;;;;;;;;;;;22.20;58.20;;;;;;1539469;76;1481;-64
2023/10/07 00:29:52;;;;;;;;;;;22.20;58.30;;;;;;1528455;76;1599;-66
2023/10/07 00:31:40;;;;;;;;;;;22.20;58.40;;;;;;1537507;76;1785;-65
2023/10/07 00:36:05;;;;;;;;;;;22.20;58.30;;;;;;1533617;76;1682;-66
2023/10/07 00:38:14;;;;;;;;;;;22.20;58.70;;;;;;1527937;76;901;-66
2023/10/07 00:42:29;;;;;;;;;;;22.20;58.80;;;;;;1508029;77;1098;-62
2023/10/07 00:44:34;;;;;;;;;;;22.20;58.90;;;;;;1532858;76;737;-65
2023/10/07 00:46:36;;;;;;;;;;;22.10;58.70;;;;;;1533729;76;722;-65
2023/10/07 00:48:52;;;;;;;;;;;22.20;58.80;;;;;;1532497;76;752;-66
2023/10/07 00:50:48;;;;;;;;;;;22.20;58.90;;;;;;1527161;76;1495;-65
2023/10/07 00:52:57;;;;;;;;;;;22.20;59.00;;;;;;1533804;76;745;-65
2023/10/07 00:57:23;;;;;;;;;;;22.10;58.90;;;;;;1532788;76;861;-65
2023/10/07 00:59:15;;;;;;;;;;;22.20;58.80;;;;;;1529712;76;1834;-65
2023/10/07 01:01:19;;;;;;;;;;;22.20;58.90;;;;;;1531572;76;1127;-62
2023/10/07 01:03:31;;;;;;;;;;;22.10;58.80;;;;;;1535215;76;1520;-65
2023/10/07 01:05:27;;;;;;;;;;;22.20;58.70;;;;;;1531851;76;1778;-64
2023/10/07 01:07:31;;;;;;;;;;;22.20;58.80;;;;;;1528391;76;709;-64
2023/10/07 01:09:32;;;;;;;;;;;22.20;58.70;;;;;;1524224;76;1648;-65
2023/10/07 01:11:39;;;;;;;;;;;22.20;58.70;;;;;;1533286;76;825;-65
2023/10/07 01:13:45;;;;;;;;;;;22.20;58.70;;;;;;1533621;76;1604;-62
2023/10/07 01:15:48;;;;;;;;;;;22.20;58.80;;;;;;1530391;76;1924;-67
2023/10/07 01:17:46;;;;;;;;;;;22.20;58.70;;;;;;1524647;77;1452;-68
2023/10/07 01:19:52;;;;;;;;;;;22.20;58.80;;;;;;1539851;75;1578;-67
2023/10/07 01:22:15;;;;;;;;;;;22.20;58.70;;;;;;1522122;76;1031;-69
2023/10/07 01:23:55;;;;;;;;;;;22.20;58.80;;;;;;1511667;77;1412;-67
2023/10/07 01:25:59;;;;;;;;;;;22.20;58.40;;;;;;1520042;77;732;-67
2023/10/07 01:28:02;;;;;;;;;;;22.10;58.70;;;;;;1542882;75;928;-67
2023/10/07 01:30:15;;;;;;;;;;;22.20;58.70;;;;;;1539614;75;1548;-65
2023/10/07 01:32:15;;;;;;;;;;;22.10;58.40;;;;;;1579999;73;1769;-66
2023/10/07 01:34:19;;;;;;;;;;;22.20;58.70;;;;;;1581973;73;2068;-65
2023/10/07 01:36:24;;;;;;;;;;;22.10;58.40;;;;;;1581781;73;646;-71
2023/10/07 01:38:24;;;;;;;;;;;22.20;58.40;;;;;;1578116;73;1616;-67
2023/10/07 01:40:45;;;;;;;;;;;22.20;58.40;;;;;;1580710;73;1126;-68
2023/10/07 01:42:37;;;;;;;;;;;22.20;58.70;;;;;;1580976;73;1768;-65
2023/10/07 01:44:41;;;;;;;;;;;22.20;58.40;;;;;;1584446;73;741;-65
2023/10/07 01:46:44;;;;;;;;;;;22.20;58.70;;;;;;1577241;73;1467;-66
2023/10/07 01:48:55;;;;;;;;;;;22.20;58.40;;;;;;1581563;73;795;-66
2023/10/07 01:50:58;;;;;;;;;;;22.10;58.20;;;;;;1581486;73;1281;-69
2023/10/07 01:53:00;;;;;;;;;;;22.10;58.30;;;;;;1581448;73;746;-68
2023/10/07 01:55:08;;;;;;;;;;;22.20;58.30;;;;;;1589867;73;1931;-71
2023/10/07 01:57:07;;;;;;;;;;;22.20;58.20;;;;;;1580182;73;1652;-67
2023/10/07 02:01:22;;;;;;;;;;;22.10;58.10;;;;;;1577321;73;1379;-67
2023/10/07 02:03:24;;;;;;;;;;;22.20;58.10;;;;;;1583789;74;1829;-66
2023/10/07 02:05:40;;;;;;;;;;;22.10;57.70;;;;;;1583108;73;702;-64
2023/10/07 02:07:29;;;;;;;;;;;22.10;58.10;;;;;;1584307;73;1501;-65
2023/10/07 02:09:40;;;;;;;;;;;22.10;58.10;;;;;;1588418;73;1108;-67
2023/10/07 02:11:40;;;;;;;;;;;22.20;57.90;;;;;;1581023;73;1669;-64
2023/10/07 02:13:42;;;;;;;;;;;22.10;58.30;;;;;;1582490;73;773;-65
2023/10/07 02:15:44;;;;;;;;;;;22.10;58.10;;;;;;1583720;73;1930;-66
2023/10/07 02:17:47;;;;;;;;;;;22.10;57.90;;;;;;1580894;73;709;-66
2023/10/07 02:19:53;;;;;;;;;;;22.10;57.80;;;;;;1582466;73;1117;-66
2023/10/07 02:21:59;;;;;;;;;;;22.20;57.80;;;;;;1584110;73;1758;-65
2023/10/07 02:23:57;;;;;;;;;;;22.10;58.00;;;;;;1586556;73;1502;-65
2023/10/07 02:25:59;;;;;;;;;;;22.10;58.30;;;;;;1587152;73;764;-66
2023/10/07 02:28:04;;;;;;;;;;;22.20;58.00;;;;;;1575508;73;713;-65
2023/10/07 02:30:05;;;;;;;;;;;22.10;58.10;;;;;;1576685;73;1677;-65
2023/10/07 02:32:14;;;;;;;;;;;22.10;58.10;;;;;;1582876;73;671;-64
2023/10/07 02:34:28;;;;;;;;;;;22.10;57.90;;;;;;1579959;73;793;-64
2023/10/07 02:36:31;;;;;;;;;;;22.10;58.20;;;;;;1584097;73;1924;-66
2023/10/07 02:38:37;;;;;;;;;;;22.10;58.30;;;;;;1579932;73;1759;-66
2023/10/07 02:40:52;;;;;;;;;;;22.10;58.40;;;;;;1586917;73;1662;-66
2023/10/07 02:42:54;;;;;;;;;;;22.10;58.20;;;;;;1580769;73;1366;-66
2023/10/07 02:45:42;;;;;;;;;;;22.10;58.20;;;;;;1582998;73;690;-64
2023/10/07 02:47:11;;;;;;;;;;;22.10;58.00;;;;;;1558449;73;1416;-64
2023/10/07 02:49:10;;;;;;;;;;;22.10;58.30;;;;;;1580987;73;1659;-66
2023/10/07 02:51:11;;;;;;;;;;;22.10;57.90;;;;;;1587175;73;1310;-64
2023/10/07 02:53:17;;;;;;;;;;;22.10;57.80;;;;;;1579384;73;693;-64
2023/10/07 02:57:34;;;;;;;;;;;22.10;58.00;;;;;;1575033;73;1573;-65
2023/10/07 02:59:27;;;;;;;;;;;22.10;58.20;;;;;;1586945;72;1779;-62
2023/10/07 03:01:29;;;;;;;;;;;22.10;57.90;;;;;;1579886;73;866;-64
2023/10/07 03:03:38;;;;;;;;;;;22.10;58.20;;;;;;1578405;73;614;-64
2023/10/07 03:05:49;;;;;;;;;;;22.10;58.00;;;;;;1580847;73;1540;-64
2023/10/07 03:07:49;;;;;;;;;;;22.10;58.20;;;;;;1582849;73;1738;-65
2023/10/07 03:10:17;;;;;;;;;;;22.10;58.20;;;;;;1577354;73;1581;-65
2023/10/07 03:11:50;;;;;;;;;;;22.10;58.00;;;;;;1576516;73;1518;-64
2023/10/07 03:13:57;;;;;;;;;;;22.10;58.20;;;;;;1579711;73;677;-65
2023/10/07 03:18:22;;;;;;;;;;;22.10;58.30;;;;;;1584411;73;1696;-65
2023/10/07 03:22:28;;;;;;;;;;;22.10;57.80;;;;;;1587938;73;886;-65
2023/10/07 03:24:41;;;;;;;;;;;22.10;58.10;;;;;;1580829;73;813;-65
2023/10/07 03:26:34;;;;;;;;;;;22.10;58.10;;;;;;1577687;73;1710;-65
2023/10/07 03:28:36;;;;;;;;;;;22.10;58.10;;;;;;1581264;73;771;-65
2023/10/07 03:30:39;;;;;;;;;;;22.10;58.00;;;;;;1585470;73;1140;-65
2023/10/07 03:32:57;;;;;;;;;;;22.10;58.10;;;;;;1578984;73;681;-65
2023/10/07 03:35:01;;;;;;;;;;;22.10;57.80;;;;;;1584147;73;1917;-64
2023/10/07 03:41:21;;;;;;;;;;;22.10;57.90;;;;;;1580670;73;1172;-66
2023/10/07 03:43:26;;;;;;;;;;;22.00;57.80;;;;;;1581847;73;763;-64
2023/10/07 03:45:29;;;;;;;;;;;22.10;57.60;;;;;;1577122;73;1726;-64
2023/10/07 03:47:32;;;;;;;;;;;22.10;57.80;;;;;;1584260;73;937;-66
2023/10/07 03:49:35;;;;;;;;;;;22.10;57.70;;;;;;1583273;73;1124;-66
2023/10/07 03:51:36;;;;;;;;;;;22.10;57.90;;;;;;1582581;73;698;-67
2023/10/07 03:53:47;;;;;;;;;;;22.10;57.70;;;;;;1588203;73;1559;-66
2023/10/07 03:55:49;;;;;;;;;;;22.00;57.80;;;;;;1582294;73;1906;-64
2023/10/07 03:57:51;;;;;;;;;;;22.10;57.70;;;;;;1585346;73;714;-64
2023/10/07 03:59:53;;;;;;;;;;;22.10;57.60;;;;;;1581647;72;1125;-65
2023/10/07 04:01:55;;;;;;;;;;;22.10;57.60;;;;;;1578422;73;683;-64
2023/10/07 04:03:59;;;;;;;;;;;22.10;57.90;;;;;;1585403;73;830;-63
2023/10/07 04:06:01;;;;;;;;;;;22.10;57.70;;;;;;1586572;73;676;-63
2023/10/07 04:08:03;;;;;;;;;;;22.10;57.50;;;;;;1576558;73;1330;-63
2023/10/07 04:10:31;;;;;;;;;;;22.00;57.30;;;;;;1587132;73;1144;-65
2023/10/07 04:12:26;;;;;;;;;;;22.00;57.40;;;;;;1586223;73;1689;-65
2023/10/07 04:14:28;;;;;;;;;;;22.10;57.20;;;;;;1586689;73;826;-66
2023/10/07 04:16:33;;;;;;;;;;;22.00;57.40;;;;;;1584543;73;1923;-65
2023/10/07 04:18:36;;;;;;;;;;;22.00;57.50;;;;;;1582290;73;1675;-65
2023/10/07 04:23:03;;;;;;;;;;;22.00;57.40;;;;;;1581320;73;1609;-64
2023/10/07 04:25:17;;;;;;;;;;;22.10;57.40;;;;;;1573461;73;693;-65
2023/10/07 04:27:10;;;;;;;;;;;22.10;57.60;;;;;;1584231;73;1687;-66
2023/10/07 04:29:15;;;;;;;;;;;22.00;57.30;;;;;;1581270;73;799;-66
2023/10/07 04:31:17;;;;;;;;;;;22.00;57.30;;;;;;1584321;73;1085;-65
2023/10/07 04:33:25;;;;;;;;;;;22.10;57.50;;;;;;1583348;73;828;-65
2023/10/07 04:35:26;;;;;;;;;;;22.00;57.20;;;;;;1580970;73;1942;-64
2023/10/07 04:37:43;;;;;;;;;;;22.00;57.40;;;;;;1589845;73;1528;-64
2023/10/07 04:41:56;;;;;;;;;;;22.00;57.20;;;;;;1582519;73;859;-63
2023/10/07 04:44:20;;;;;;;;;;;22.00;56.90;;;;;;1581773;73;1478;-65
2023/10/07 04:46:22;;;;;;;;;;;22.00;57.20;;;;;;1578087;73;1732;-65
2023/10/07 04:50:35;;;;;;;;;;;22.00;57.00;;;;;;1584959;73;1651;-65
2023/10/07 04:52:51;;;;;;;;;;;22.00;56.80;;;;;;1583789;73;700;-64
2023/10/07 04:54:53;;;;;;;;;;;22.10;57.00;;;;;;1587230;73;705;-67
2023/10/07 04:57:00;;;;;;;;;;;22.10;56.70;;;;;;1581142;73;1918;-66
2023/10/07 04:59:06;;;;;;;;;;;22.00;57.50;;;;;;1585410;73;946;-65
2023/10/07 05:01:06;;;;;;;;;;;22.00;57.30;;;;;;1582252;73;1613;-64
2023/10/07 05:03:16;;;;;;;;;;;22.00;57.90;;;;;;1588766;73;787;-61
2023/10/07 05:05:18;;;;;;;;;;;22.10;57.70;;;;;;1588137;73;684;-62
2023/10/07 05:07:26;;;;;;;;;;;22.10;57.80;;;;;;1575750;73;742;-62
2023/10/07 05:09:26;;;;;;;;;;;22.00;57.30;;;;;;1582877;73;1536;-64
2023/10/07 05:11:27;;;;;;;;;;;22.10;57.30;;;;;;1584420;73;1749;-64
2023/10/07 05:13:29;;;;;;;;;;;22.10;57.50;;;;;;1584121;73;722;-63
2023/10/07 05:15:31;;;;;;;;;;;22.00;57.60;;;;;;1583778;73;1926;-63
2023/10/07 05:17:36;;;;;;;;;;;22.10;57.80;;;;;;1583304;73;1520;-65
2023/10/07 05:19:37;;;;;;;;;;;22.10;57.60;;;;;;1584927;73;1694;-66
2023/10/07 05:21:39;;;;;;;;;;;22.00;57.50;;;;;;1581882;73;798;-64
2023/10/07 05:23:41;;;;;;;;;;;22.00;57.30;;;;;;1582541;73;695;-65
2023/10/07 05:25:50;;;;;;;;;;;22.00;57.40;;;;;;1582846;73;759;-65
2023/10/07 05:27:52;;;;;;;;;;;22.10;57.60;;;;;;1577835;73;712;-66
2023/10/07 05:29:56;;;;;;;;;;;22.00;57.80;;;;;;1585202;73;1133;-65
2023/10/07 05:31:58;;;;;;;;;;;22.00;57.60;;;;;;1584321;73;1652;-64
2023/10/07 05:34:00;;;;;;;;;;;22.10;57.50;;;;;;1583797;73;771;-64
2023/10/07 05:36:16;;;;;;;;;;;22.00;57.70;;;;;;1586235;73;1903;-64
2023/10/07 05:38:18;;;;;;;;;;;22.00;57.70;;;;;;1584867;73;1531;-64
2023/10/07 05:40:22;;;;;;;;;;;22.00;57.80;;;;;;1587515;72;1130;-66
2023/10/07 05:42:25;;;;;;;;;;;22.00;57.60;;;;;;1589453;73;676;-66
2023/10/07 05:44:28;;;;;;;;;;;22.10;57.60;;;;;;1584570;73;743;-64
2023/10/07 05:46:32;;;;;;;;;;;22.00;57.60;;;;;;1585021;73;1517;-66
2023/10/07 05:48:37;;;;;;;;;;;22.00;57.70;;;;;;1585185;73;779;-64
2023/10/07 05:50:39;;;;;;;;;;;22.10;57.30;;;;;;1585138;73;1772;-61
2023/10/07 05:52:42;;;;;;;;;;;22.00;57.30;;;;;;1581008;73;1485;-65
2023/10/07 05:54:43;;;;;;;;;;;22.00;58.00;;;;;;1580739;73;779;-64
2023/10/07 05:56:50;;;;;;;;;;;22.00;58.20;;;;;;1583588;73;1954;-63
2023/10/07 05:58:49;;;;;;;;;;;22.00;57.80;;;;;;1582495;73;1440;-65
2023/10/07 06:00:51;;;;;;;;;;;22.00;57.80;;;;;;1584320;73;1617;-64
2023/10/07 06:02:53;;;;;;;;;;;22.00;57.60;;;;;;1586760;73;944;-64
2023/10/07 06:04:55;;;;;;;;;;;22.00;57.60;;;;;;1582678;73;675;-63
2023/10/07 06:06:57;;;;;;;;;;;22.00;57.60;;;;;;1581106;73;663;-64
2023/10/07 06:09:02;;;;;;;;;;;22.00;57.70;;;;;;1584840;73;764;-64
2023/10/07 06:11:04;;;;;;;;;;;22.00;57.90;;;;;;1517523;77;1763;-65
2023/10/07 06:13:10;;;;;;;;;;;22.00;57.80;;;;;;1519412;76;1405;-64
2023/10/07 06:15:10;;;;;;;;;;;22.00;57.60;;;;;;1513277;76;1714;-65
2023/10/07 06:17:12;;;;;;;;;;;22.00;57.70;;;;;;1526482;77;1913;-65
2023/10/07 06:19:17;;;;;;;;;;;22.00;57.80;;;;;;1522304;76;737;-64
2023/10/07 06:21:19;;;;;;;;;;;22.00;57.80;;;;;;1524328;76;1746;-65
2023/10/07 06:23:24;;;;;;;;;;;22.00;57.90;;;;;;1520826;76;613;-63
2023/10/07 06:25:30;;;;;;;;;;;22.00;57.50;;;;;;1514946;76;989;-65
2023/10/07 06:27:28;;;;;;;;;;;22.00;57.80;;;;;;1523648;76;1617;-64
2023/10/07 06:29:32;;;;;;;;;;;22.00;57.80;;;;;;1515942;77;1566;-65
2023/10/07 06:31:34;;;;;;;;;;;22.00;57.80;;;;;;1523415;77;712;-65
2023/10/07 06:33:38;;;;;;;;;;;22.00;57.80;;;;;;1530712;76;813;-65
2023/10/07 06:35:39;;;;;;;;;;;22.00;57.70;;;;;;1524084;76;1522;-64
2023/10/07 06:37:42;;;;;;;;;;;22.00;57.40;;;;;;1530425;76;1952;-64
2023/10/07 06:39:43;;;;;;;;;;;22.00;57.70;;;;;;1522608;76;1130;-65
2023/10/07 06:41:45;;;;;;;;;;;22.00;57.80;;;;;;1523010;76;1549;-66
2023/10/07 06:43:54;;;;;;;;;;;22.10;58.10;;;;;;1520709;76;810;-65
2023/10/07 06:45:56;;;;;;;;;;;22.00;57.20;;;;;;1522144;78;742;-63
2023/10/07 06:47:59;;;;;;;;;;;22.00;57.30;;;;;;1521949;76;768;-65
2023/10/07 06:50:02;;;;;;;;;;;22.00;57.40;;;;;;1523347;75;1158;-63
2023/10/07 06:52:04;;;;;;;;;;;22.10;56.80;;;;;;1523002;76;734;-64
2023/10/07 06:54:07;;;;;;;;;;;22.00;56.40;;;;;;1523297;76;695;-62
2023/10/07 06:56:13;;;;;;;;;;;22.00;57.20;;;;;;1526062;76;1934;-65
2023/10/07 06:58:14;;;;;;;;;;;22.00;57.20;;;;;;1521273;77;1402;-64
2023/10/07 07:00:23;;;;;;;;;;;22.00;57.10;;;;;;1521701;76;1185;-63
2023/10/07 07:02:34;;;;;;;;;;;22.00;57.50;;;;;;1514498;76;1753;-64
2023/10/07 07:04:23;;;;;;;;;;;22.00;57.80;;;;;;1514941;78;1666;-63
2023/10/07 07:06:34;;;;;;;;;;;22.00;58.30;;;;;;1523864;76;775;-64
2023/10/07 07:08:34;;;;;;;;;;;22.10;58.40;;;;;;1520003;76;1529;-64
2023/10/07 07:10:32;;;;;;;;;;;22.00;58.10;;;;;;1519894;76;1617;-64
2023/10/07 07:12:34;;;;;;;;;;;22.00;58.10;;;;;;1522216;76;782;-64
2023/10/07 07:14:36;;;;;;;;;;;22.00;57.60;;;;;;1522529;76;778;-61
2023/10/07 07:16:42;;;;;;;;;;;22.00;57.50;;;;;;1519225;77;1922;-63
2023/10/07 07:18:44;;;;;;;;;;;22.10;57.60;;;;;;1521491;76;1657;-63
2023/10/07 07:21:00;;;;;;;;;;;22.00;57.90;;;;;;1525261;76;1176;-62
2023/10/07 07:22:58;;;;;;;;;;;22.10;57.40;;;;;;1524364;77;1729;-63
2023/10/07 07:25:17;;;;;;;;;;;22.10;56.60;;;;;;1522012;76;1300;-62
2023/10/07 07:27:17;;;;;;;;;;;22.10;57.30;;;;;;1520920;76;1694;-67
2023/10/07 07:29:24;;;;;;;;;;;22.20;57.10;;;;;;1519562;77;962;-62
2023/10/07 07:31:33;;;;;;;;;;;22.30;56.80;;;;;;1521707;76;1664;-62
2023/10/07 07:33:35;;;;;;;;;;;22.20;55.30;;;;;;1522933;76;1578;-60
2023/10/07 07:35:40;;;;;;;;;;;22.20;54.70;;;;;;1520042;76;1626;-62
2023/10/07 07:37:42;;;;;;;;;;;22.10;53.60;;;;;;1520939;76;1899;-62
2023/10/07 07:39:47;;;;;;;;;;;22.10;53.00;;;;;;1521920;76;1521;-61
2023/10/07 07:41:57;;;;;;;;;;;22.00;52.40;;;;;;1522733;76;1519;-60
2023/10/07 07:43:59;;;;;;;;;;;22.00;52.50;;;;;;1520747;76;698;-61
2023/10/07 07:46:29;;;;;;;;;;;22.10;52.30;;;;;;1521902;77;908;-61
2023/10/07 07:48:11;;;;;;;;;;;22.10;52.40;;;;;;1522192;76;1443;-62
2023/10/07 07:50:15;;;;;;;;;;;22.10;52.20;;;;;;1525346;76;1098;-61
2023/10/07 07:52:17;;;;;;;;;;;22.10;52.00;;;;;;1524007;75;1752;-62
2023/10/07 07:54:18;;;;;;;;;;;22.10;52.00;;;;;;1521549;76;852;-62
2023/10/07 07:56:22;;;;;;;;;;;22.10;51.90;;;;;;1522939;77;690;-61
2023/10/07 07:58:25;;;;;;;;;;;22.20;51.90;;;;;;1516345;76;746;-60
2023/10/07 08:00:28;;;;;;;;;;;22.20;51.80;;;;;;1519531;77;1158;-59
2023/10/07 08:02:29;;;;;;;;;;;22.20;51.90;;;;;;1521001;76;1496;-61
2023/10/07 08:04:37;;;;;;;;;;;22.20;51.80;;;;;;1521512;76;1319;-61
2023/10/07 08:06:39;;;;;;;;;;;22.30;51.70;;;;;;1521085;76;1510;-61
2023/10/07 08:08:42;;;;;;;;;;;22.20;51.60;;;;;;1535520;75;1321;-61
2023/10/07 08:10:48;;;;;;;;;;;22.30;51.70;;;;;;1521162;77;1140;-61
2023/10/07 08:12:50;;;;;;;;;;;22.30;51.60;;;;;;1521448;76;1781;-59
2023/10/07 08:14:52;;;;;;;;;;;22.30;51.40;;;;;;1521264;76;1537;-62
2023/10/07 08:16:54;;;;;;;;;;;22.40;51.30;;;;;;1522778;76;1929;-60
2023/10/07 08:18:56;;;;;;;;;;;22.40;51.30;;;;;;1520696;76;1328;-61
2023/10/07 08:21:07;;;;;;;;;;;22.40;51.30;;;;;;1517261;77;1512;-61
2023/10/07 08:23:21;;;;;;;;;;;22.40;51.20;;;;;;1531563;76;1408;-62
2023/10/07 08:25:37;;;;;;;;;;;22.40;51.10;;;;;;1581037;73;1605;-61
2023/10/07 08:27:49;;;;;;;;;;;22.40;51.20;;;;;;1584766;73;1582;-61
2023/10/07 08:29:53;;;;;;;;;;;22.40;50.80;;;;;;1578644;73;1636;-61
2023/10/07 08:31:57;;;;;;;;;;;22.50;50.90;;;;;;1582580;73;1694;-61
2023/10/07 08:36:13;;;;;;;;;;;22.50;51.10;;;;;;1581496;73;1227;-62
2023/10/07 08:38:37;;;;;;;;;;;22.50;51.00;;;;;;1580653;73;1907;-62
2023/10/07 08:40:40;;;;;;;;;;;22.40;50.80;;;;;;1577178;73;1596;-61
2023/10/07 08:42:35;;;;;;;;;;;22.50;51.00;;;;;;1578222;73;1729;-63
2023/10/07 08:44:38;;;;;;;;;;;22.50;51.30;;;;;;1572936;74;1576;-63
2023/10/07 08:46:48;;;;;;;;;;;22.50;51.10;;;;;;1582523;73;1527;-62
2023/10/07 08:48:57;;;;;;;;;;;22.50;51.00;;;;;;1583128;73;1824;-61
2023/10/07 08:51:10;;;;;;;;;;;22.50;51.20;;;;;;1580918;73;1660;-62
2023/10/07 08:53:07;;;;;;;;;;;22.50;50.70;;;;;;1578945;73;1536;-62
2023/10/07 08:55:09;;;;;;;;;;;22.50;50.80;;;;;;1583532;73;1580;-62
2023/10/07 08:57:18;;;;;;;;;;;22.50;51.20;;;;;;1582302;73;1917;-62
2023/10/07 08:59:16;;;;;;;;;;;22.50;51.20;;;;;;1582002;73;1595;-63
2023/10/07 09:01:18;;;;;;;;;;;22.50;51.30;;;;;;1582540;74;1492;-62
2023/10/07 09:03:26;;;;;;;;;;;22.50;51.20;;;;;;1583308;73;1623;-62
2023/10/07 09:05:24;;;;;;;;;;;22.50;51.40;;;;;;1584345;73;1775;-62
2023/10/07 09:07:36;;;;;;;;;;;22.50;51.20;;;;;;1581142;73;1584;-61
2023/10/07 09:09:44;;;;;;;;;;;22.60;51.30;;;;;;1583219;74;1700;-62
2023/10/07 09:11:48;;;;;;;;;;;22.50;51.40;;;;;;1583302;73;1589;-62
2023/10/07 09:13:50;;;;;;;;;;;22.60;51.50;;;;;;1582148;73;2048;-62
2023/10/07 09:15:53;;;;;;;;;;;22.50;51.30;;;;;;1583032;74;1507;-60
2023/10/07 09:18:03;;;;;;;;;;;22.50;51.20;;;;;;1580982;73;1926;-62
2023/10/07 09:20:06;;;;;;;;;;;22.50;51.30;;;;;;1581848;73;1922;-63
2023/10/07 09:22:10;;;;;;;;;;;22.50;50.70;;;;;;1582024;73;1502;-63
2023/10/07 09:24:20;;;;;;;;;;;22.50;50.10;;;;;;1580411;73;1665;-63
2023/10/07 09:26:22;;;;;;;;;;;22.60;49.20;;;;;;1583073;73;1808;-63
2023/10/07 09:28:31;;;;;;;;;;;22.50;49.20;;;;;;1580499;74;1023;-63
2023/10/07 09:32:46;;;;;;;;;;;22.50;49.10;;;;;;1578546;74;804;-62
2023/10/07 09:34:48;;;;;;;;;;;22.40;48.40;;;;;;1584403;73;723;-64
2023/10/07 09:36:53;;;;;;;;;;;22.50;47.80;;;;;;1581587;74;815;-62
2023/10/07 09:39:16;;;;;;;;;;;22.40;47.90;;;;;;1584944;73;1936;-63
2023/10/07 09:41:12;;;;;;;;;;;22.40;47.30;;;;;;1578179;74;1703;-63
2023/10/07 09:43:19;;;;;;;;;;;22.40;48.50;;;;;;1583629;73;700;-62
2023/10/07 09:45:25;;;;;;;;;;;22.40;49.40;;;;;;1582592;73;1636;-63
2023/10/07 09:47:22;;;;;;;;;;;22.40;47.90;;;;;;1583610;74;1557;-64
2023/10/07 09:49:25;;;;;;;;;;;22.40;46.70;;;;;;1584694;73;1167;-63
2023/10/07 09:51:34;;;;;;;;;;;22.40;46.80;;;;;;1582555;73;729;-62
2023/10/07 09:53:36;;;;;;;;;;;22.40;46.40;;;;;;1583422;73;1535;-63
2023/10/07 09:55:40;;;;;;;;;;;22.40;46.20;;;;;;1585078;73;782;-63
2023/10/07 09:57:44;;;;;;;;;;;22.40;46.40;;;;;;1583738;74;1908;-63
2023/10/07 10:00:37;;;;;;;;;;;22.40;45.70;;;;;;1580898;73;1664;-64
2023/10/07 10:02:31;;;;;;;;;;;22.30;45.10;;;;;;1581931;73;1358;-62
2023/10/07 10:04:49;;;;;;;;;;;22.30;46.10;;;;;;1582435;73;1691;-63
2023/10/07 10:07:10;;;;;;;;;;;22.30;45.10;;;;;;1584693;74;806;-63
2023/10/07 10:09:14;;;;;;;;;;;22.30;44.40;;;;;;1539765;76;1522;-64
2023/10/07 10:15:51;;;;;;;;;;;22.20;43.40;;;;;;1532036;76;851;-64
2023/10/07 10:17:53;;;;;;;;;;;22.20;43.90;;;;;;1536160;76;1932;-65
2023/10/07 10:20:00;;;;;;;;;;;22.30;43.90;;;;;;1532579;76;1156;-63
2023/10/07 10:22:16;;;;;;;;;;;22.20;45.00;;;;;;1532570;76;967;-66
2023/10/07 10:24:18;;;;;;;;;;;22.30;45.00;;;;;;1532095;76;688;-64
2023/10/07 10:26:26;;;;;;;;;;;22.30;43.90;;;;;;1531675;76;754;-64
2023/10/07 10:28:31;;;;;;;;;;;22.30;42.70;;;;;;1527002;76;1571;-61
2023/10/07 10:30:33;;;;;;;;;;;22.30;44.00;;;;;;1531485;76;1116;-63
2023/10/07 10:32:36;;;;;;;;;;;22.20;42.70;;;;;;1531537;76;725;-64
2023/10/07 10:34:38;;;;;;;;;;;22.20;40.60;;;;;;1532019;76;730;-63
2023/10/07 10:36:43;;;;;;;;;;;22.20;40.20;;;;;;1529955;76;785;-64
2023/10/07 10:38:45;;;;;;;;;;;22.20;39.50;;;;;;1530106;76;1922;-64
2023/10/07 10:40:47;;;;;;;;;;;22.10;40.50;;;;;;1542404;75;1591;-65
2023/10/07 10:42:49;;;;;;;;;;;22.10;41.00;;;;;;1581901;74;729;-64
2023/10/07 10:44:53;;;;;;;;;;;22.10;40.40;;;;;;1583157;74;967;-65
2023/10/07 10:46:55;;;;;;;;;;;22.10;39.50;;;;;;1585265;73;1586;-63
2023/10/07 10:48:58;;;;;;;;;;;22.10;41.10;;;;;;1585411;73;723;-62
2023/10/07 10:50:59;;;;;;;;;;;22.10;40.00;;;;;;1590206;72;1146;-64
2023/10/07 10:53:02;;;;;;;;;;;22.10;40.20;;;;;;1585273;74;730;-63
2023/10/07 10:55:06;;;;;;;;;;;22.10;39.80;;;;;;1586665;73;1536;-62
2023/10/07 10:57:09;;;;;;;;;;;22.10;39.70;;;;;;1582729;74;1624;-63
2023/10/07 10:59:14;;;;;;;;;;;22.00;40.10;;;;;;1578981;74;1950;-64
2023/10/07 11:01:14;;;;;;;;;;;22.00;42.10;;;;;;1581621;73;1669;-64
2023/10/07 11:03:25;;;;;;;;;;;22.10;43.70;;;;;;1584484;73;789;-65
2023/10/07 11:05:25;;;;;;;;;;;22.10;44.00;;;;;;1582926;73;1469;-64
2023/10/07 11:07:26;;;;;;;;;;;22.10;43.60;;;;;;1582788;74;1438;-63
2023/10/07 11:09:36;;;;;;;;;;;22.20;42.60;;;;;;1582670;73;1514;-63
2023/10/07 11:11:35;;;;;;;;;;;22.10;40.20;;;;;;1580458;73;1629;-64
2023/10/07 11:13:35;;;;;;;;;;;22.10;41.00;;;;;;1582882;73;1653;-66
2023/10/07 11:15:40;;;;;;;;;;;22.10;40.90;;;;;;1565291;74;1269;-64
2023/10/07 11:17:41;;;;;;;;;;;22.10;39.80;;;;;;1586051;73;1922;-64
2023/10/07 11:19:44;;;;;;;;;;;22.10;37.70;;;;;;1583488;73;1254;-67
2023/10/07 11:21:49;;;;;;;;;;;22.10;37.30;;;;;;1580280;73;794;-64
2023/10/07 11:23:57;;;;;;;;;;;22.10;41.00;;;;;;1583607;73;1595;-66
2023/10/07 11:25:55;;;;;;;;;;;22.10;42.90;;;;;;1582355;73;1554;-67
2023/10/07 11:27:58;;;;;;;;;;;22.10;44.20;;;;;;1583394;73;711;-66
2023/10/07 11:30:06;;;;;;;;;;;22.10;44.50;;;;;;1577001;74;1169;-66
2023/10/07 11:32:04;;;;;;;;;;;22.20;45.30;;;;;;1577560;74;1607;-66
2023/10/07 11:34:06;;;;;;;;;;;22.20;45.50;;;;;;1583966;73;760;-66
2023/10/07 11:36:08;;;;;;;;;;;22.20;45.80;;;;;;1579643;73;800;-66
2023/10/07 11:38:11;;;;;;;;;;;22.20;45.90;;;;;;1583252;73;1933;-66
2023/10/07 11:40:13;;;;;;;;;;;22.30;46.10;;;;;;1580079;74;1140;-66
2023/10/07 11:42:20;;;;;;;;;;;22.20;46.00;;;;;;1582971;74;748;-66
2023/10/07 11:44:23;;;;;;;;;;;22.20;46.10;;;;;;1582993;73;803;-66
2023/10/07 11:46:25;;;;;;;;;;;22.30;46.30;;;;;;1588473;73;764;-66
2023/10/07 11:48:26;;;;;;;;;;;22.20;46.20;;;;;;1583428;73;767;-65
2023/10/07 11:50:31;;;;;;;;;;;22.20;46.30;;;;;;1585312;73;1145;-66
2023/10/07 11:52:33;;;;;;;;;;;22.20;46.30;;;;;;1583966;73;1656;-65
2023/10/07 11:54:37;;;;;;;;;;;22.20;46.40;;;;;;1581975;74;722;-66
2023/10/07 11:56:39;;;;;;;;;;;22.20;46.30;;;;;;1584229;74;682;-66
2023/10/07 11:58:46;;;;;;;;;;;22.20;46.50;;;;;;1577483;73;1917;-65
2023/10/07 12:00:46;;;;;;;;;;;22.20;46.50;;;;;;1578325;73;1646;-66
2023/10/07 12:02:50;;;;;;;;;;;22.20;46.60;;;;;;1586445;73;635;-66
2023/10/07 12:04:53;;;;;;;;;;;22.20;46.60;;;;;;1582938;74;812;-66
2023/10/07 12:06:56;;;;;;;;;;;22.20;46.70;;;;;;1583871;73;1266;-66
2023/10/07 12:09:06;;;;;;;;;;;22.20;46.80;;;;;;1584301;73;731;-66
2023/10/07 12:11:01;;;;;;;;;;;22.20;46.80;;;;;;1577047;73;1683;-65
2023/10/07 12:13:07;;;;;;;;;;;22.20;46.80;;;;;;1581961;73;857;-64
2023/10/07 12:15:08;;;;;;;;;;;22.20;46.90;;;;;;1583320;73;1513;-66
2023/10/07 12:17:11;;;;;;;;;;;22.20;47.00;;;;;;1585233;73;793;-66
2023/10/07 12:19:17;;;;;;;;;;;22.20;47.10;;;;;;1582695;73;1918;-64
2023/10/07 12:21:17;;;;;;;;;;;22.10;47.10;;;;;;1579582;74;1941;-64
2023/10/07 12:23:19;;;;;;;;;;;22.10;47.10;;;;;;1582210;73;902;-64
2023/10/07 12:25:21;;;;;;;;;;;22.20;47.20;;;;;;1585205;74;777;-61
2023/10/07 12:27:24;;;;;;;;;;;22.20;47.20;;;;;;1584111;73;771;-63
2023/10/07 12:29:27;;;;;;;;;;;22.20;47.20;;;;;;1582647;73;1170;-63
2023/10/07 12:31:29;;;;;;;;;;;22.20;47.30;;;;;;1584790;73;744;-64
2023/10/07 12:33:31;;;;;;;;;;;22.30;47.40;;;;;;1584139;73;1567;-65
2023/10/07 12:35:34;;;;;;;;;;;22.20;47.20;;;;;;1581691;73;740;-64
2023/10/07 12:37:40;;;;;;;;;;;22.10;47.20;;;;;;1584579;73;721;-63
2023/10/07 12:39:44;;;;;;;;;;;22.30;47.40;;;;;;1585493;73;1917;-66
2023/10/07 12:41:45;;;;;;;;;;;22.20;47.40;;;;;;1584960;73;1512;-65
2023/10/07 12:43:47;;;;;;;;;;;22.20;47.60;;;;;;1580148;73;1484;-63
2023/10/07 12:45:49;;;;;;;;;;;22.20;47.60;;;;;;1583704;73;1491;-64
2023/10/07 12:47:55;;;;;;;;;;;22.20;47.70;;;;;;1584675;73;1403;-64
2023/10/07 12:49:57;;;;;;;;;;;22.20;47.80;;;;;;1584080;74;1461;-62
2023/10/07 12:51:59;;;;;;;;;;;22.20;47.80;;;;;;1583639;74;1491;-62